Overseas Houston — WWAA — position and weather

sailwx.info

Track history (hours):
 
Tides and Currents Weather Stations Pressure Air Temp Water Temp Dewpoint Dewpoint Depression Visibility Wind Speed Wind Dir Waves Ship Positions

Overseas Houston

Owner: ASC Leasing I, Inc., Philadelphia, PA. More information available from US FCC via Universal Licensing System and Coast Guard Vessel Documentation Center.

Last reported at 2016-May-28 23:22 UTC. Time now 2016-May-29 00:06 UTC.
Position N 26°06' W 080°07'.

Type: Tanker. MMSI: 367109000.

Date/timePositionNaut miles runAvg speedWind from/ knotsBaromVisibWave heightAir tempDewpointWater temp
2016-May-28 23:22N 26°06' W 080°07'0 0.0
2016-May-28 22:22N 26°06' W 080°07'0 0.0
2016-May-28 21:25N 26°06' W 080°07'0 0.0
2016-May-28 20:25N 26°06' W 080°07'0 0.0
2016-May-28 19:25N 26°06' W 080°07'0 0.0
2016-May-28 18:10N 26°06' W 080°07'0 0.0
2016-May-28 17:25N 26°06' W 080°07'0 0.0
2016-May-28 16:25N 26°06' W 080°07'0 0.0
2016-May-28 15:25N 26°06' W 080°07'0 0.0
2016-May-28 14:28N 26°06' W 080°07'0 0.0
2016-May-28 13:25N 26°06' W 080°07'0 0.0
2016-May-28 12:28N 26°06' W 080°07'1 0.6
2016-May-28 11:33N 26°06' W 080°07'3 3.0
2016-May-28 10:33N 26°08' W 080°04'0 0.3
2016-May-28 09:27N 26°07' W 080°04'0 0.0
2016-May-28 08:27N 26°07' W 080°04'0 0.1
2016-May-28 07:27N 26°07' W 080°04'0 0.1
2016-May-28 06:27N 26°08' W 080°04'0 0.0
2016-May-28 05:27N 26°08' W 080°04'0 0.0
2016-May-28 04:30N 26°08' W 080°04'0 0.0
2016-May-28 03:30N 26°08' W 080°04'0 0.0
2016-May-28 02:30N 26°08' W 080°04'0 0.0
2016-May-28 01:33N 26°08' W 080°04'0 0.1
2016-May-28 00:33N 26°08' W 080°04'5 5.1
2016-May-27 23:33N 26°04' W 080°01'1413.7
2016-May-27 22:33N 25°51' W 079°56'58511.7
2016-May-25 20:33N 29°50' W 090°00'6 6.2
2016-May-25 19:33N 29°56' W 089°59'9 8.9
2016-May-25 18:33N 29°57' W 090°09'  
2016-May-23 12:12N 29°58' W 090°15'5 7.4
2016-May-23 11:33N 29°57' W 090°10'6 5.9
2016-May-23 10:33N 29°58' W 090°03'9 8.8
2016-May-23 09:32N 29°53' W 089°54'0 0.1
2016-May-23 08:32N 29°53' W 089°54'0 0.0
2016-May-23 07:26N 29°53' W 089°54'0 0.0
2016-May-23 06:32N 29°53' W 089°54'0 0.0
2016-May-22 09:31N 29°53' W 089°54'0 0.0
2016-May-22 08:31N 29°53' W 089°54'0 0.0
2016-May-22 07:31N 29°53' W 089°54'0 0.0
2016-May-22 06:25N 29°53' W 089°54'0 0.0
2016-May-22 05:25N 29°53' W 089°54'10 1.6
2016-May-21 23:23N 29°45' W 090°01'40412.5
2016-May-20 15:04N 27°36' W 082°44'612.5
2016-May-20 14:33N 27°38' W 082°37'10 9.7
2016-May-20 13:33N 27°47' W 082°33'4 4.4
2016-May-20 12:33N 27°52' W 082°33'0 0.0
2016-May-20 11:31N 27°52' W 082°33'0 0.0
2016-May-20 10:31N 27°52' W 082°33'0 0.0
2016-May-20 09:31N 27°52' W 082°33'0 0.0
2016-May-20 08:31N 27°52' W 082°33'0 0.0
2016-May-20 07:31N 27°52' W 082°33'0 0.0
2016-May-20 06:31N 27°52' W 082°33'0 0.0
2016-May-20 05:31N 27°52' W 082°33'0 0.0
2016-May-20 04:31N 27°52' W 082°33'0 0.0
2016-May-20 03:31N 27°52' W 082°33'0 0.0
2016-May-20 02:31N 27°52' W 082°33'0 0.0
2016-May-20 01:31N 27°52' W 082°33'0 0.0
2016-May-20 00:31N 27°52' W 082°33'0 0.0
2016-May-19 23:31N 27°52' W 082°33'0 0.0
2016-May-19 22:31N 27°52' W 082°33'0 0.0
2016-May-19 21:31N 27°52' W 082°33'0 0.0
2016-May-19 20:31N 27°52' W 082°33'0 0.0
2016-May-19 19:31N 27°52' W 082°33'0 0.0
2016-May-19 18:31N 27°52' W 082°33'0 0.0
2016-May-19 17:31N 27°52' W 082°33'0 0.0
2016-May-19 16:31N 27°52' W 082°33'0 0.0
2016-May-19 15:31N 27°52' W 082°33'0 0.0
2016-May-19 14:31N 27°52' W 082°33'0 0.0
2016-May-19 13:31N 27°52' W 082°33'0 0.0
2016-May-19 12:31N 27°52' W 082°33'0 0.0
2016-May-19 11:31N 27°52' W 082°33'0 0.0
2016-May-19 10:34N 27°52' W 082°33'0 0.0
2016-May-19 09:34N 27°52' W 082°33'0 0.0
2016-May-19 08:33N 27°52' W 082°33'0 0.0
2016-May-19 07:33N 27°52' W 082°33'0 0.0
2016-May-19 06:33N 27°52' W 082°33'0 0.0
2016-May-19 05:33N 27°52' W 082°33'0 0.0
2016-May-19 04:33N 27°52' W 082°33'0 0.0
2016-May-19 03:33N 27°52' W 082°33'0 0.0
2016-May-19 02:33N 27°52' W 082°33'0 0.0
2016-May-19 01:33N 27°52' W 082°33'0 0.0
2016-May-19 00:33N 27°52' W 082°33'0 0.0
2016-May-18 23:33N 27°52' W 082°33'  
Track history (hours):
 
Tides and Currents Weather Stations Pressure Air Temp Water Temp Dewpoint Dewpoint Depression Visibility Wind Speed Wind Dir Waves Ship Positions

Overseas Houston

Owner: ASC Leasing I, Inc., Philadelphia, PA. More information available from US FCC via Universal Licensing System and Coast Guard Vessel Documentation Center.

Last reported at 2016-May-28 23:22 UTC. Time now 2016-May-29 00:06 UTC.
Position N 26°06' W 080°07'.

Type: Tanker. MMSI: 367109000.

Date/timePositionNaut miles runAvg speedWind from/ knotsBaromVisibWave heightAir tempDewpointWater temp
2016-May-28 23:22N 26°06' W 080°07'0 0.0
2016-May-28 22:22N 26°06' W 080°07'0 0.0
2016-May-28 21:25N 26°06' W 080°07'0 0.0
2016-May-28 20:25N 26°06' W 080°07'0 0.0
2016-May-28 19:25N 26°06' W 080°07'0 0.0
2016-May-28 18:10N 26°06' W 080°07'0 0.0
2016-May-28 17:25N 26°06' W 080°07'0 0.0
2016-May-28 16:25N 26°06' W 080°07'0 0.0
2016-May-28 15:25N 26°06' W 080°07'0 0.0
2016-May-28 14:28N 26°06' W 080°07'0 0.0
2016-May-28 13:25N 26°06' W 080°07'0 0.0
2016-May-28 12:28N 26°06' W 080°07'1 0.6
2016-May-28 11:33N 26°06' W 080°07'3 3.0
2016-May-28 10:33N 26°08' W 080°04'0 0.3
2016-May-28 09:27N 26°07' W 080°04'0 0.0
2016-May-28 08:27N 26°07' W 080°04'0 0.1
2016-May-28 07:27N 26°07' W 080°04'0 0.1
2016-May-28 06:27N 26°08' W 080°04'0 0.0
2016-May-28 05:27N 26°08' W 080°04'0 0.0
2016-May-28 04:30N 26°08' W 080°04'0 0.0
2016-May-28 03:30N 26°08' W 080°04'0 0.0
2016-May-28 02:30N 26°08' W 080°04'0 0.0
2016-May-28 01:33N 26°08' W 080°04'0 0.1
2016-May-28 00:33N 26°08' W 080°04'5 5.1
2016-May-27 23:33N 26°04' W 080°01'1413.7
2016-May-27 22:33N 25°51' W 079°56'58511.7
2016-May-25 20:33N 29°50' W 090°00'6 6.2
2016-May-25 19:33N 29°56' W 089°59'9 8.9
2016-May-25 18:33N 29°57' W 090°09'  
2016-May-23 12:12N 29°58' W 090°15'5 7.4
2016-May-23 11:33N 29°57' W 090°10'6 5.9
2016-May-23 10:33N 29°58' W 090°03'9 8.8
2016-May-23 09:32N 29°53' W 089°54'0 0.1
2016-May-23 08:32N 29°53' W 089°54'0 0.0
2016-May-23 07:26N 29°53' W 089°54'0 0.0
2016-May-23 06:32N 29°53' W 089°54'0 0.0
2016-May-22 09:31N 29°53' W 089°54'0 0.0
2016-May-22 08:31N 29°53' W 089°54'0 0.0
2016-May-22 07:31N 29°53' W 089°54'0 0.0
2016-May-22 06:25N 29°53' W 089°54'0 0.0
2016-May-22 05:25N 29°53' W 089°54'10 1.6
2016-May-21 23:23N 29°45' W 090°01'40412.5
2016-May-20 15:04N 27°36' W 082°44'612.5
2016-May-20 14:33N 27°38' W 082°37'10 9.7
2016-May-20 13:33N 27°47' W 082°33'4 4.4
2016-May-20 12:33N 27°52' W 082°33'0 0.0
2016-May-20 11:31N 27°52' W 082°33'0 0.0
2016-May-20 10:31N 27°52' W 082°33'0 0.0
2016-May-20 09:31N 27°52' W 082°33'0 0.0
2016-May-20 08:31N 27°52' W 082°33'0 0.0
2016-May-20 07:31N 27°52' W 082°33'0 0.0
2016-May-20 06:31N 27°52' W 082°33'0 0.0
2016-May-20 05:31N 27°52' W 082°33'0 0.0
2016-May-20 04:31N 27°52' W 082°33'0 0.0
2016-May-20 03:31N 27°52' W 082°33'0 0.0
2016-May-20 02:31N 27°52' W 082°33'0 0.0
2016-May-20 01:31N 27°52' W 082°33'0 0.0
2016-May-20 00:31N 27°52' W 082°33'0 0.0
2016-May-19 23:31N 27°52' W 082°33'0 0.0
2016-May-19 22:31N 27°52' W 082°33'0 0.0
2016-May-19 21:31N 27°52' W 082°33'0 0.0
2016-May-19 20:31N 27°52' W 082°33'0 0.0
2016-May-19 19:31N 27°52' W 082°33'0 0.0
2016-May-19 18:31N 27°52' W 082°33'0 0.0
2016-May-19 17:31N 27°52' W 082°33'0 0.0
2016-May-19 16:31N 27°52' W 082°33'0 0.0
2016-May-19 15:31N 27°52' W 082°33'0 0.0
2016-May-19 14:31N 27°52' W 082°33'0 0.0
2016-May-19 13:31N 27°52' W 082°33'0 0.0
2016-May-19 12:31N 27°52' W 082°33'0 0.0
2016-May-19 11:31N 27°52' W 082°33'0 0.0
2016-May-19 10:34N 27°52' W 082°33'0 0.0
2016-May-19 09:34N 27°52' W 082°33'0 0.0
2016-May-19 08:33N 27°52' W 082°33'0 0.0
2016-May-19 07:33N 27°52' W 082°33'0 0.0
2016-May-19 06:33N 27°52' W 082°33'0 0.0
2016-May-19 05:33N 27°52' W 082°33'0 0.0
2016-May-19 04:33N 27°52' W 082°33'0 0.0
2016-May-19 03:33N 27°52' W 082°33'0 0.0
2016-May-19 02:33N 27°52' W 082°33'0 0.0
2016-May-19 01:33N 27°52' W 082°33'0 0.0
2016-May-19 00:33N 27°52' W 082°33'0 0.0
2016-May-18 23:33N 27°52' W 082°33'  

Dump ship's entire track history